sensor_id;sensor_type;location;lat;lon;timestamp;temperature;humidity
13684;DHT22;6914;53.552;9.908;2022-08-03T00:01:28;21.50;99.90
13684;DHT22;6914;53.552;9.908;2022-08-03T00:03:55;21.40;99.90
13684;DHT22;6914;53.552;9.908;2022-08-03T00:06:24;21.30;99.90
13684;DHT22;6914;53.552;9.908;2022-08-03T00:08:51;21.20;99.90
13684;DHT22;6914;53.552;9.908;2022-08-03T00:11:18;21.20;99.90
13684;DHT22;6914;53.552;9.908;2022-08-03T00:13:45;21.20;99.90
13684;DHT22;6914;53.552;9.908;2022-08-03T00:16:12;21.10;99.90
13684;DHT22;6914;53.552;9.908;2022-08-03T00:18:39;21.00;99.90
13684;DHT22;6914;53.552;9.908;2022-08-03T00:21:06;21.00;99.90
13684;DHT22;6914;53.552;9.908;2022-08-03T00:23:35;21.10;99.90
13684;DHT22;6914;53.552;9.908;2022-08-03T00:26:02;21.10;99.90
13684;DHT22;6914;53.552;9.908;2022-08-03T00:28:29;21.20;99.90
13684;DHT22;6914;53.552;9.908;2022-08-03T00:30:56;21.20;99.90
13684;DHT22;6914;53.552;9.908;2022-08-03T00:33:23;21.20;99.90
13684;DHT22;6914;53.552;9.908;2022-08-03T00:35:51;21.20;99.90
13684;DHT22;6914;53.552;9.908;2022-08-03T00:38:18;21.10;99.90
13684;DHT22;6914;53.552;9.908;2022-08-03T00:40:46;21.00;99.90
13684;DHT22;6914;53.552;9.908;2022-08-03T00:43:13;20.90;99.90
13684;DHT22;6914;53.552;9.908;2022-08-03T00:45:41;21.00;99.90
13684;DHT22;6914;53.552;9.908;2022-08-03T00:48:10;21.00;99.90
13684;DHT22;6914;53.552;9.908;2022-08-03T00:50:39;20.90;99.90
13684;DHT22;6914;53.552;9.908;2022-08-03T00:53:06;20.90;99.90
13684;DHT22;6914;53.552;9.908;2022-08-03T00:55:35;20.90;99.90
13684;DHT22;6914;53.552;9.908;2022-08-03T00:58:04;20.90;99.90
13684;DHT22;6914;53.552;9.908;2022-08-03T01:00:32;20.80;99.90
13684;DHT22;6914;53.552;9.908;2022-08-03T01:03:01;20.80;99.90
13684;DHT22;6914;53.552;9.908;2022-08-03T01:05:28;20.60;99.90
13684;DHT22;6914;53.552;9.908;2022-08-03T01:08:02;20.80;99.90
13684;DHT22;6914;53.552;9.908;2022-08-03T01:10:36;20.80;99.90
13684;DHT22;6914;53.552;9.908;2022-08-03T01:13:16;20.90;99.90
13684;DHT22;6914;53.552;9.908;2022-08-03T01:15:51;20.90;99.90
13684;DHT22;6914;53.552;9.908;2022-08-03T01:18:26;20.90;99.90
13684;DHT22;6914;53.552;9.908;2022-08-03T01:20:57;20.80;99.90
13684;DHT22;6914;53.552;9.908;2022-08-03T01:23:51;20.80;99.90
13684;DHT22;6914;53.552;9.908;2022-08-03T01:26:47;20.70;99.90
13684;DHT22;6914;53.552;9.908;2022-08-03T01:29:59;20.60;99.90
13684;DHT22;6914;53.552;9.908;2022-08-03T01:32:41;20.60;99.90
13684;DHT22;6914;53.552;9.908;2022-08-03T01:35:15;20.50;99.90
13684;DHT22;6914;53.552;9.908;2022-08-03T01:37:47;20.50;99.90
13684;DHT22;6914;53.552;9.908;2022-08-03T01:40:17;20.50;99.90
13684;DHT22;6914;53.552;9.908;2022-08-03T01:42:45;20.40;99.90
13684;DHT22;6914;53.552;9.908;2022-08-03T01:45:15;20.50;99.90
13684;DHT22;6914;53.552;9.908;2022-08-03T01:47:44;20.40;99.90
13684;DHT22;6914;53.552;9.908;2022-08-03T01:50:12;20.40;99.90
13684;DHT22;6914;53.552;9.908;2022-08-03T01:52:41;20.40;99.90
13684;DHT22;6914;53.552;9.908;2022-08-03T01:55:11;20.30;99.90
13684;DHT22;6914;53.552;9.908;2022-08-03T01:57:39;20.30;99.90
13684;DHT22;6914;53.552;9.908;2022-08-03T02:00:09;20.20;99.90
13684;DHT22;6914;53.552;9.908;2022-08-03T02:02:38;20.20;99.90
13684;DHT22;6914;53.552;9.908;2022-08-03T02:05:08;20.10;99.90
13684;DHT22;6914;53.552;9.908;2022-08-03T02:07:36;20.10;99.90
13684;DHT22;6914;53.552;9.908;2022-08-03T02:10:06;20.00;99.90
13684;DHT22;6914;53.552;9.908;2022-08-03T02:12:33;20.00;99.90
13684;DHT22;6914;53.552;9.908;2022-08-03T02:15:03;20.00;99.90
13684;DHT22;6914;53.552;9.908;2022-08-03T02:17:32;20.00;99.90
13684;DHT22;6914;53.552;9.908;2022-08-03T02:20:02;20.10;99.90
13684;DHT22;6914;53.552;9.908;2022-08-03T02:22:30;19.90;99.90
13684;DHT22;6914;53.552;9.908;2022-08-03T02:24:58;19.90;99.90
13684;DHT22;6914;53.552;9.908;2022-08-03T02:27:26;20.00;99.90
13684;DHT22;6914;53.552;9.908;2022-08-03T02:29:59;20.00;99.90
13684;DHT22;6914;53.552;9.908;2022-08-03T02:32:33;20.10;99.90
13684;DHT22;6914;53.552;9.908;2022-08-03T02:35:04;20.10;99.90
13684;DHT22;6914;53.552;9.908;2022-08-03T02:37:40;20.10;99.90
13684;DHT22;6914;53.552;9.908;2022-08-03T02:40:09;20.10;99.90
13684;DHT22;6914;53.552;9.908;2022-08-03T02:42:38;20.10;99.90
13684;DHT22;6914;53.552;9.908;2022-08-03T02:45:09;20.00;99.90
13684;DHT22;6914;53.552;9.908;2022-08-03T02:47:39;20.10;99.90
13684;DHT22;6914;53.552;9.908;2022-08-03T02:50:12;20.10;99.90
13684;DHT22;6914;53.552;9.908;2022-08-03T02:52:41;20.10;99.90
13684;DHT22;6914;53.552;9.908;2022-08-03T02:55:10;20.10;99.90
13684;DHT22;6914;53.552;9.908;2022-08-03T02:57:38;20.10;99.90
13684;DHT22;6914;53.552;9.908;2022-08-03T03:00:07;20.10;99.90
13684;DHT22;6914;53.552;9.908;2022-08-03T03:02:36;20.20;99.90
13684;DHT22;6914;53.552;9.908;2022-08-03T03:05:04;20.20;99.90
13684;DHT22;6914;53.552;9.908;2022-08-03T03:07:34;20.20;99.90
13684;DHT22;6914;53.552;9.908;2022-08-03T03:10:02;20.20;99.90
13684;DHT22;6914;53.552;9.908;2022-08-03T03:12:30;20.10;99.90
13684;DHT22;6914;53.552;9.908;2022-08-03T03:14:57;20.10;99.90
13684;DHT22;6914;53.552;9.908;2022-08-03T03:17:25;20.00;99.90
13684;DHT22;6914;53.552;9.908;2022-08-03T03:19:52;19.90;99.90
13684;DHT22;6914;53.552;9.908;2022-08-03T03:22:21;19.80;99.90
13684;DHT22;6914;53.552;9.908;2022-08-03T03:24:51;19.70;99.90
13684;DHT22;6914;53.552;9.908;2022-08-03T03:27:19;19.70;99.90
13684;DHT22;6914;53.552;9.908;2022-08-03T03:29:47;19.60;99.90
13684;DHT22;6914;53.552;9.908;2022-08-03T03:32:15;19.60;99.90
13684;DHT22;6914;53.552;9.908;2022-08-03T03:34:43;19.60;99.90
13684;DHT22;6914;53.552;9.908;2022-08-03T03:37:10;19.60;99.90
13684;DHT22;6914;53.552;9.908;2022-08-03T03:39:37;19.60;99.90
13684;DHT22;6914;53.552;9.908;2022-08-03T03:42:06;19.60;99.90
13684;DHT22;6914;53.552;9.908;2022-08-03T03:44:33;19.50;99.90
13684;DHT22;6914;53.552;9.908;2022-08-03T03:47:00;19.50;99.90
13684;DHT22;6914;53.552;9.908;2022-08-03T03:49:27;19.40;99.90
13684;DHT22;6914;53.552;9.908;2022-08-03T03:51:54;19.40;99.90
13684;DHT22;6914;53.552;9.908;2022-08-03T03:54:21;19.40;99.90
13684;DHT22;6914;53.552;9.908;2022-08-03T03:56:48;19.30;99.90
13684;DHT22;6914;53.552;9.908;2022-08-03T03:59:17;19.30;99.90
13684;DHT22;6914;53.552;9.908;2022-08-03T04:01:44;19.20;99.90
13684;DHT22;6914;53.552;9.908;2022-08-03T04:04:11;19.20;99.90
13684;DHT22;6914;53.552;9.908;2022-08-03T04:06:52;19.20;99.90
13684;DHT22;6914;53.552;9.908;2022-08-03T04:09:37;19.30;99.90
13684;DHT22;6914;53.552;9.908;2022-08-03T04:12:25;19.40;99.90
13684;DHT22;6914;53.552;9.908;2022-08-03T04:14:57;19.40;99.90
13684;DHT22;6914;53.552;9.908;2022-08-03T04:17:26;19.50;99.90
13684;DHT22;6914;53.552;9.908;2022-08-03T04:19:54;19.50;99.90
13684;DHT22;6914;53.552;9.908;2022-08-03T04:22:25;19.50;99.90
13684;DHT22;6914;53.552;9.908;2022-08-03T04:24:56;19.60;99.90
13684;DHT22;6914;53.552;9.908;2022-08-03T04:27:26;19.70;99.90
13684;DHT22;6914;53.552;9.908;2022-08-03T04:29:57;19.70;99.90
13684;DHT22;6914;53.552;9.908;2022-08-03T04:32:25;19.70;99.90
13684;DHT22;6914;53.552;9.908;2022-08-03T04:34:53;19.70;99.90
13684;DHT22;6914;53.552;9.908;2022-08-03T04:37:28;19.70;99.90
13684;DHT22;6914;53.552;9.908;2022-08-03T04:40:01;19.70;99.90
13684;DHT22;6914;53.552;9.908;2022-08-03T04:42:30;19.80;99.90
13684;DHT22;6914;53.552;9.908;2022-08-03T04:45:02;19.80;99.90
13684;DHT22;6914;53.552;9.908;2022-08-03T04:47:31;19.80;99.90
13684;DHT22;6914;53.552;9.908;2022-08-03T04:50:00;20.30;99.90
13684;DHT22;6914;53.552;9.908;2022-08-03T04:52:27;19.90;99.90
13684;DHT22;6914;53.552;9.908;2022-08-03T04:54:54;20.00;99.90
13684;DHT22;6914;53.552;9.908;2022-08-03T04:57:22;20.00;99.90
13684;DHT22;6914;53.552;9.908;2022-08-03T04:59:50;20.00;99.90
13684;DHT22;6914;53.552;9.908;2022-08-03T05:02:20;20.00;99.90
13684;DHT22;6914;53.552;9.908;2022-08-03T05:04:47;20.10;99.90
13684;DHT22;6914;53.552;9.908;2022-08-03T05:07:16;20.20;99.90
13684;DHT22;6914;53.552;9.908;2022-08-03T05:09:43;20.20;99.90
13684;DHT22;6914;53.552;9.908;2022-08-03T05:12:11;20.40;99.90
13684;DHT22;6914;53.552;9.908;2022-08-03T05:14:38;20.50;99.90
13684;DHT22;6914;53.552;9.908;2022-08-03T05:17:07;20.60;99.90
13684;DHT22;6914;53.552;9.908;2022-08-03T05:19:35;20.70;99.90
13684;DHT22;6914;53.552;9.908;2022-08-03T05:22:02;20.80;99.90
13684;DHT22;6914;53.552;9.908;2022-08-03T05:24:29;20.80;99.90
13684;DHT22;6914;53.552;9.908;2022-08-03T05:26:56;20.90;99.90
13684;DHT22;6914;53.552;9.908;2022-08-03T05:29:23;20.90;99.90
13684;DHT22;6914;53.552;9.908;2022-08-03T05:31:50;21.00;99.90
13684;DHT22;6914;53.552;9.908;2022-08-03T05:34:18;21.00;99.90
13684;DHT22;6914;53.552;9.908;2022-08-03T05:36:46;21.00;99.90
13684;DHT22;6914;53.552;9.908;2022-08-03T05:39:13;21.10;99.90
13684;DHT22;6914;53.552;9.908;2022-08-03T05:41:41;21.10;99.90
13684;DHT22;6914;53.552;9.908;2022-08-03T05:44:08;21.20;99.90
13684;DHT22;6914;53.552;9.908;2022-08-03T05:46:35;21.20;99.90
13684;DHT22;6914;53.552;9.908;2022-08-03T05:49:02;21.20;99.90
13684;DHT22;6914;53.552;9.908;2022-08-03T05:51:29;21.40;99.90
13684;DHT22;6914;53.552;9.908;2022-08-03T05:53:57;21.50;99.90
13684;DHT22;6914;53.552;9.908;2022-08-03T05:56:24;21.50;99.90
13684;DHT22;6914;53.552;9.908;2022-08-03T05:58:52;21.60;99.90
13684;DHT22;6914;53.552;9.908;2022-08-03T06:01:19;21.60;99.90
13684;DHT22;6914;53.552;9.908;2022-08-03T06:03:47;21.90;99.90
13684;DHT22;6914;53.552;9.908;2022-08-03T06:06:15;21.80;99.90
13684;DHT22;6914;53.552;9.908;2022-08-03T06:08:43;21.80;99.90
13684;DHT22;6914;53.552;9.908;2022-08-03T06:11:12;21.80;99.90
13684;DHT22;6914;53.552;9.908;2022-08-03T06:13:39;21.90;99.90
13684;DHT22;6914;53.552;9.908;2022-08-03T06:16:07;21.90;99.90
13684;DHT22;6914;53.552;9.908;2022-08-03T06:18:34;22.00;99.90
13684;DHT22;6914;53.552;9.908;2022-08-03T06:21:02;22.10;99.90
13684;DHT22;6914;53.552;9.908;2022-08-03T06:23:29;22.20;99.90
13684;DHT22;6914;53.552;9.908;2022-08-03T06:25:56;22.20;99.90
13684;DHT22;6914;53.552;9.908;2022-08-03T06:28:24;22.20;99.90
13684;DHT22;6914;53.552;9.908;2022-08-03T06:30:52;22.30;99.90
13684;DHT22;6914;53.552;9.908;2022-08-03T06:33:19;22.30;99.90
13684;DHT22;6914;53.552;9.908;2022-08-03T06:35:46;22.40;99.90
13684;DHT22;6914;53.552;9.908;2022-08-03T06:38:13;22.40;99.90
13684;DHT22;6914;53.552;9.908;2022-08-03T06:40:40;22.50;99.90
13684;DHT22;6914;53.552;9.908;2022-08-03T06:43:07;22.60;99.90
13684;DHT22;6914;53.552;9.908;2022-08-03T06:45:37;22.70;99.90
13684;DHT22;6914;53.552;9.908;2022-08-03T06:48:06;22.80;99.90
13684;DHT22;6914;53.552;9.908;2022-08-03T06:50:34;23.00;99.90
13684;DHT22;6914;53.552;9.908;2022-08-03T06:53:02;23.10;99.90
13684;DHT22;6914;53.552;9.908;2022-08-03T06:55:30;23.10;99.90
13684;DHT22;6914;53.552;9.908;2022-08-03T06:57:57;23.20;99.90
13684;DHT22;6914;53.552;9.908;2022-08-03T07:00:25;23.30;99.90
13684;DHT22;6914;53.552;9.908;2022-08-03T07:02:54;23.40;99.90
13684;DHT22;6914;53.552;9.908;2022-08-03T07:05:21;24.00;99.90
13684;DHT22;6914;53.552;9.908;2022-08-03T07:07:48;23.50;99.90
13684;DHT22;6914;53.552;9.908;2022-08-03T07:10:15;23.60;99.90
13684;DHT22;6914;53.552;9.908;2022-08-03T07:12:42;23.70;99.90
13684;DHT22;6914;53.552;9.908;2022-08-03T07:15:10;23.90;99.90
13684;DHT22;6914;53.552;9.908;2022-08-03T07:17:37;24.00;99.90
13684;DHT22;6914;53.552;9.908;2022-08-03T07:20:07;24.10;99.90
13684;DHT22;6914;53.552;9.908;2022-08-03T07:22:35;24.20;99.90
13684;DHT22;6914;53.552;9.908;2022-08-03T07:25:02;24.30;99.90
13684;DHT22;6914;53.552;9.908;2022-08-03T07:27:30;24.40;99.90
13684;DHT22;6914;53.552;9.908;2022-08-03T07:29:57;24.50;99.90
13684;DHT22;6914;53.552;9.908;2022-08-03T07:32:25;24.60;99.90
13684;DHT22;6914;53.552;9.908;2022-08-03T07:34:53;24.70;99.90
13684;DHT22;6914;53.552;9.908;2022-08-03T07:37:21;24.70;99.90
13684;DHT22;6914;53.552;9.908;2022-08-03T07:39:48;24.80;99.90
13684;DHT22;6914;53.552;9.908;2022-08-03T07:42:15;24.90;99.90
13684;DHT22;6914;53.552;9.908;2022-08-03T07:44:42;25.00;99.90
13684;DHT22;6914;53.552;9.908;2022-08-03T07:47:10;25.00;99.90
13684;DHT22;6914;53.552;9.908;2022-08-03T07:49:40;25.10;99.90
13684;DHT22;6914;53.552;9.908;2022-08-03T07:52:07;25.20;99.90
13684;DHT22;6914;53.552;9.908;2022-08-03T07:54:53;25.30;99.90
13684;DHT22;6914;53.552;9.908;2022-08-03T07:57:20;25.30;99.90
13684;DHT22;6914;53.552;9.908;2022-08-03T07:59:46;25.30;99.90
13684;DHT22;6914;53.552;9.908;2022-08-03T08:02:13;25.30;99.90
13684;DHT22;6914;53.552;9.908;2022-08-03T08:04:40;25.50;99.90
13684;DHT22;6914;53.552;9.908;2022-08-03T08:07:07;25.50;99.90
13684;DHT22;6914;53.552;9.908;2022-08-03T08:09:35;25.70;99.90
13684;DHT22;6914;53.552;9.908;2022-08-03T08:12:04;25.70;99.90
13684;DHT22;6914;53.552;9.908;2022-08-03T08:14:32;25.70;99.90
13684;DHT22;6914;53.552;9.908;2022-08-03T08:17:00;25.70;99.90
13684;DHT22;6914;53.552;9.908;2022-08-03T08:19:27;25.80;99.90
13684;DHT22;6914;53.552;9.908;2022-08-03T08:21:54;25.90;99.90
13684;DHT22;6914;53.552;9.908;2022-08-03T08:24:21;25.90;99.90
13684;DHT22;6914;53.552;9.908;2022-08-03T08:26:47;25.90;99.90
13684;DHT22;6914;53.552;9.908;2022-08-03T08:29:16;26.00;99.90
13684;DHT22;6914;53.552;9.908;2022-08-03T08:31:47;26.10;99.90
13684;DHT22;6914;53.552;9.908;2022-08-03T08:34:15;26.20;99.90
13684;DHT22;6914;53.552;9.908;2022-08-03T08:36:42;26.40;99.90
13684;DHT22;6914;53.552;9.908;2022-08-03T08:39:10;26.40;99.90
13684;DHT22;6914;53.552;9.908;2022-08-03T08:41:38;26.50;99.90
13684;DHT22;6914;53.552;9.908;2022-08-03T08:44:05;26.60;99.90
13684;DHT22;6914;53.552;9.908;2022-08-03T08:46:37;26.70;99.90
13684;DHT22;6914;53.552;9.908;2022-08-03T08:49:06;26.80;99.90
13684;DHT22;6914;53.552;9.908;2022-08-03T08:51:35;26.80;99.90
13684;DHT22;6914;53.552;9.908;2022-08-03T08:54:06;27.10;99.90
13684;DHT22;6914;53.552;9.908;2022-08-03T08:56:35;27.10;99.90
13684;DHT22;6914;53.552;9.908;2022-08-03T08:59:03;27.20;99.90
13684;DHT22;6914;53.552;9.908;2022-08-03T09:01:31;27.20;99.90
13684;DHT22;6914;53.552;9.908;2022-08-03T09:03:59;27.30;99.90
13684;DHT22;6914;53.552;9.908;2022-08-03T09:06:26;27.50;99.90
13684;DHT22;6914;53.552;9.908;2022-08-03T09:08:54;27.50;99.90
13684;DHT22;6914;53.552;9.908;2022-08-03T09:11:21;27.50;99.90
13684;DHT22;6914;53.552;9.908;2022-08-03T09:13:49;27.70;99.90
13684;DHT22;6914;53.552;9.908;2022-08-03T09:16:17;27.90;99.20
13684;DHT22;6914;53.552;9.908;2022-08-03T09:18:46;27.90;98.60
13684;DHT22;6914;53.552;9.908;2022-08-03T09:21:20;27.80;98.80
13684;DHT22;6914;53.552;9.908;2022-08-03T09:23:48;28.00;99.60
13684;DHT22;6914;53.552;9.908;2022-08-03T09:26:20;28.10;96.70
13684;DHT22;6914;53.552;9.908;2022-08-03T09:28:54;28.00;98.00
13684;DHT22;6914;53.552;9.908;2022-08-03T09:31:32;28.10;96.70
13684;DHT22;6914;53.552;9.908;2022-08-03T09:34:01;28.30;97.80
13684;DHT22;6914;53.552;9.908;2022-08-03T09:36:39;28.50;94.10
13684;DHT22;6914;53.552;9.908;2022-08-03T09:39:08;28.50;90.50
13684;DHT22;6914;53.552;9.908;2022-08-03T09:41:39;28.40;94.90
13684;DHT22;6914;53.552;9.908;2022-08-03T09:44:07;28.50;93.10
13684;DHT22;6914;53.552;9.908;2022-08-03T09:46:47;28.80;91.10
13684;DHT22;6914;53.552;9.908;2022-08-03T09:49:15;29.10;84.10
13684;DHT22;6914;53.552;9.908;2022-08-03T09:51:44;29.30;80.90
13684;DHT22;6914;53.552;9.908;2022-08-03T09:54:11;29.50;71.90
13684;DHT22;6914;53.552;9.908;2022-08-03T09:56:43;29.50;69.40
13684;DHT22;6914;53.552;9.908;2022-08-03T09:59:12;29.70;68.60
13684;DHT22;6914;53.552;9.908;2022-08-03T10:01:39;29.80;74.40
13684;DHT22;6914;53.552;9.908;2022-08-03T10:04:14;30.40;65.90
13684;DHT22;6914;53.552;9.908;2022-08-03T10:06:44;30.70;60.00
13684;DHT22;6914;53.552;9.908;2022-08-03T10:09:13;30.90;58.80
13684;DHT22;6914;53.552;9.908;2022-08-03T10:11:42;31.40;59.00
13684;DHT22;6914;53.552;9.908;2022-08-03T10:14:10;32.20;57.30
13684;DHT22;6914;53.552;9.908;2022-08-03T10:16:43;33.00;54.30
13684;DHT22;6914;53.552;9.908;2022-08-03T10:19:11;33.90;52.10
13684;DHT22;6914;53.552;9.908;2022-08-03T10:21:40;34.30;50.00
13684;DHT22;6914;53.552;9.908;2022-08-03T10:24:10;33.70;50.60
13684;DHT22;6914;53.552;9.908;2022-08-03T10:26:39;33.60;49.80
13684;DHT22;6914;53.552;9.908;2022-08-03T10:29:11;32.90;51.10
13684;DHT22;6914;53.552;9.908;2022-08-03T10:31:44;33.00;50.90
13684;DHT22;6914;53.552;9.908;2022-08-03T10:34:18;33.20;51.10
13684;DHT22;6914;53.552;9.908;2022-08-03T10:36:46;34.20;49.60
13684;DHT22;6914;53.552;9.908;2022-08-03T10:39:18;34.20;48.60
13684;DHT22;6914;53.552;9.908;2022-08-03T10:41:48;34.40;48.20
13684;DHT22;6914;53.552;9.908;2022-08-03T10:44:18;34.70;48.10
13684;DHT22;6914;53.552;9.908;2022-08-03T10:46:46;35.40;47.10
13684;DHT22;6914;53.552;9.908;2022-08-03T10:49:16;35.90;46.40
13684;DHT22;6914;53.552;9.908;2022-08-03T10:51:45;36.20;45.10
13684;DHT22;6914;53.552;9.908;2022-08-03T10:54:39;35.70;45.00
13684;DHT22;6914;53.552;9.908;2022-08-03T10:57:44;35.10;46.10
13684;DHT22;6914;53.552;9.908;2022-08-03T11:00:12;35.80;45.80
13684;DHT22;6914;53.552;9.908;2022-08-03T11:03:07;36.00;44.10
13684;DHT22;6914;53.552;9.908;2022-08-03T11:05:37;35.50;45.00
13684;DHT22;6914;53.552;9.908;2022-08-03T11:08:29;35.40;44.90
13684;DHT22;6914;53.552;9.908;2022-08-03T11:10:59;35.50;44.80
13684;DHT22;6914;53.552;9.908;2022-08-03T11:13:28;35.60;44.90
13684;DHT22;6914;53.552;9.908;2022-08-03T11:16:01;35.60;44.10
13684;DHT22;6914;53.552;9.908;2022-08-03T11:18:29;35.90;44.00
13684;DHT22;6914;53.552;9.908;2022-08-03T11:20:58;36.20;42.60
13684;DHT22;6914;53.552;9.908;2022-08-03T11:23:43;36.60;43.00
13684;DHT22;6914;53.552;9.908;2022-08-03T11:26:13;37.20;42.00
13684;DHT22;6914;53.552;9.908;2022-08-03T11:28:41;37.30;41.80
13684;DHT22;6914;53.552;9.908;2022-08-03T11:31:43;37.70;41.40
13684;DHT22;6914;53.552;9.908;2022-08-03T11:34:14;38.20;40.70
13684;DHT22;6914;53.552;9.908;2022-08-03T11:37:22;38.00;39.80
13684;DHT22;6914;53.552;9.908;2022-08-03T11:39:51;37.80;41.00
13684;DHT22;6914;53.552;9.908;2022-08-03T11:42:43;37.80;41.00
13684;DHT22;6914;53.552;9.908;2022-08-03T11:45:11;38.20;40.60
13684;DHT22;6914;53.552;9.908;2022-08-03T11:47:40;37.30;40.20
13684;DHT22;6914;53.552;9.908;2022-08-03T11:50:09;37.40;41.40
13684;DHT22;6914;53.552;9.908;2022-08-03T11:52:38;37.10;41.60
13684;DHT22;6914;53.552;9.908;2022-08-03T11:55:14;37.00;41.70
13684;DHT22;6914;53.552;9.908;2022-08-03T11:57:43;37.10;41.10
13684;DHT22;6914;53.552;9.908;2022-08-03T12:00:26;37.80;40.70
13684;DHT22;6914;53.552;9.908;2022-08-03T12:02:59;37.60;40.70
13684;DHT22;6914;53.552;9.908;2022-08-03T12:05:41;36.40;40.90
13684;DHT22;6914;53.552;9.908;2022-08-03T12:08:10;36.80;40.50
13684;DHT22;6914;53.552;9.908;2022-08-03T12:10:38;36.90;40.60
13684;DHT22;6914;53.552;9.908;2022-08-03T12:13:07;37.10;40.30
13684;DHT22;6914;53.552;9.908;2022-08-03T12:15:35;37.50;39.90
13684;DHT22;6914;53.552;9.908;2022-08-03T12:18:13;36.40;41.30
13684;DHT22;6914;53.552;9.908;2022-08-03T12:20:41;36.20;40.80
13684;DHT22;6914;53.552;9.908;2022-08-03T12:23:09;36.60;40.70
13684;DHT22;6914;53.552;9.908;2022-08-03T12:25:37;36.80;40.60
13684;DHT22;6914;53.552;9.908;2022-08-03T12:28:09;36.50;40.20
13684;DHT22;6914;53.552;9.908;2022-08-03T12:30:37;36.20;40.70
13684;DHT22;6914;53.552;9.908;2022-08-03T12:33:15;36.20;40.80
13684;DHT22;6914;53.552;9.908;2022-08-03T12:35:45;36.40;40.90
13684;DHT22;6914;53.552;9.908;2022-08-03T12:38:17;36.00;40.50
13684;DHT22;6914;53.552;9.908;2022-08-03T12:40:53;35.80;42.30
13684;DHT22;6914;53.552;9.908;2022-08-03T12:43:22;36.10;41.10
13684;DHT22;6914;53.552;9.908;2022-08-03T12:45:49;36.70;41.80
13684;DHT22;6914;53.552;9.908;2022-08-03T12:48:16;36.90;40.70
13684;DHT22;6914;53.552;9.908;2022-08-03T12:50:43;36.30;40.80
13684;DHT22;6914;53.552;9.908;2022-08-03T12:53:10;36.10;41.30
13684;DHT22;6914;53.552;9.908;2022-08-03T12:55:37;36.30;41.70
13684;DHT22;6914;53.552;9.908;2022-08-03T12:58:06;36.30;41.80
13684;DHT22;6914;53.552;9.908;2022-08-03T13:00:37;35.80;41.60
13684;DHT22;6914;53.552;9.908;2022-08-03T13:03:06;34.50;43.40
13684;DHT22;6914;53.552;9.908;2022-08-03T13:05:42;34.60;43.90
13684;DHT22;6914;53.552;9.908;2022-08-03T13:08:17;34.90;44.10
13684;DHT22;6914;53.552;9.908;2022-08-03T13:10:44;34.90;44.40
13684;DHT22;6914;53.552;9.908;2022-08-03T13:13:11;34.70;43.90
13684;DHT22;6914;53.552;9.908;2022-08-03T13:15:40;34.50;44.40
13684;DHT22;6914;53.552;9.908;2022-08-03T13:18:07;34.40;44.70
13684;DHT22;6914;53.552;9.908;2022-08-03T13:20:35;34.00;44.60
13684;DHT22;6914;53.552;9.908;2022-08-03T13:23:02;33.80;45.10
13684;DHT22;6914;53.552;9.908;2022-08-03T13:25:29;33.90;45.40
13684;DHT22;6914;53.552;9.908;2022-08-03T13:27:57;34.00;45.60
13684;DHT22;6914;53.552;9.908;2022-08-03T13:30:25;33.60;45.60
13684;DHT22;6914;53.552;9.908;2022-08-03T13:32:54;33.90;46.70
13684;DHT22;6914;53.552;9.908;2022-08-03T13:35:22;34.10;46.30
13684;DHT22;6914;53.552;9.908;2022-08-03T13:37:50;34.60;46.10
13684;DHT22;6914;53.552;9.908;2022-08-03T13:40:17;34.40;45.10
13684;DHT22;6914;53.552;9.908;2022-08-03T13:42:44;34.40;45.40
13684;DHT22;6914;53.552;9.908;2022-08-03T13:45:12;34.30;45.10
13684;DHT22;6914;53.552;9.908;2022-08-03T13:47:45;34.00;45.80
13684;DHT22;6914;53.552;9.908;2022-08-03T13:50:13;34.30;46.00
13684;DHT22;6914;53.552;9.908;2022-08-03T13:52:41;34.30;45.40
13684;DHT22;6914;53.552;9.908;2022-08-03T13:55:10;34.30;45.40
13684;DHT22;6914;53.552;9.908;2022-08-03T13:57:38;34.30;44.80
13684;DHT22;6914;53.552;9.908;2022-08-03T14:00:06;34.10;45.30
13684;DHT22;6914;53.552;9.908;2022-08-03T14:02:33;34.20;45.70
13684;DHT22;6914;53.552;9.908;2022-08-03T14:05:00;34.10;45.40
13684;DHT22;6914;53.552;9.908;2022-08-03T14:07:28;34.10;45.80
13684;DHT22;6914;53.552;9.908;2022-08-03T14:09:56;34.10;45.70
13684;DHT22;6914;53.552;9.908;2022-08-03T14:12:23;34.00;46.10
13684;DHT22;6914;53.552;9.908;2022-08-03T14:14:50;33.80;45.50
13684;DHT22;6914;53.552;9.908;2022-08-03T14:17:17;33.80;45.60
13684;DHT22;6914;53.552;9.908;2022-08-03T14:19:44;33.70;45.80
13684;DHT22;6914;53.552;9.908;2022-08-03T14:22:11;33.00;46.50
13684;DHT22;6914;53.552;9.908;2022-08-03T14:24:40;33.40;47.60
13684;DHT22;6914;53.552;9.908;2022-08-03T14:27:07;33.60;46.60
13684;DHT22;6914;53.552;9.908;2022-08-03T14:29:34;33.60;46.10
13684;DHT22;6914;53.552;9.908;2022-08-03T14:32:01;33.80;46.50
13684;DHT22;6914;53.552;9.908;2022-08-03T14:34:28;33.60;46.00
13684;DHT22;6914;53.552;9.908;2022-08-03T14:36:55;33.80;46.70
13684;DHT22;6914;53.552;9.908;2022-08-03T14:39:22;33.80;46.90
13684;DHT22;6914;53.552;9.908;2022-08-03T14:41:50;33.80;46.30
13684;DHT22;6914;53.552;9.908;2022-08-03T14:44:17;33.90;46.60
13684;DHT22;6914;53.552;9.908;2022-08-03T14:46:44;33.90;46.70
13684;DHT22;6914;53.552;9.908;2022-08-03T14:49:11;34.00;46.70
13684;DHT22;6914;53.552;9.908;2022-08-03T14:51:38;33.80;46.40
13684;DHT22;6914;53.552;9.908;2022-08-03T14:54:05;33.80;46.70
13684;DHT22;6914;53.552;9.908;2022-08-03T14:56:32;33.70;47.00
13684;DHT22;6914;53.552;9.908;2022-08-03T14:59:01;33.50;47.10
13684;DHT22;6914;53.552;9.908;2022-08-03T15:01:28;33.50;47.20
13684;DHT22;6914;53.552;9.908;2022-08-03T15:03:55;33.30;47.30
13684;DHT22;6914;53.552;9.908;2022-08-03T15:06:22;33.00;47.60
13684;DHT22;6914;53.552;9.908;2022-08-03T15:08:49;33.20;48.30
13684;DHT22;6914;53.552;9.908;2022-08-03T15:11:16;33.40;47.70
13684;DHT22;6914;53.552;9.908;2022-08-03T15:13:43;33.50;48.00
13684;DHT22;6914;53.552;9.908;2022-08-03T15:16:12;33.60;47.40
13684;DHT22;6914;53.552;9.908;2022-08-03T15:18:39;33.40;47.90
13684;DHT22;6914;53.552;9.908;2022-08-03T15:21:06;33.30;47.90
13684;DHT22;6914;53.552;9.908;2022-08-03T15:23:35;33.40;47.70
13684;DHT22;6914;53.552;9.908;2022-08-03T15:26:03;33.20;47.20
13684;DHT22;6914;53.552;9.908;2022-08-03T15:28:30;33.00;47.20
13684;DHT22;6914;53.552;9.908;2022-08-03T15:30:57;32.60;47.70
13684;DHT22;6914;53.552;9.908;2022-08-03T15:33:26;32.70;48.30
13684;DHT22;6914;53.552;9.908;2022-08-03T15:35:53;32.80;48.70
13684;DHT22;6914;53.552;9.908;2022-08-03T15:38:21;32.90;48.10
13684;DHT22;6914;53.552;9.908;2022-08-03T15:40:48;33.00;47.40
13684;DHT22;6914;53.552;9.908;2022-08-03T15:43:18;33.00;47.30
13684;DHT22;6914;53.552;9.908;2022-08-03T15:45:46;32.80;47.10
13684;DHT22;6914;53.552;9.908;2022-08-03T15:48:13;32.80;47.70
13684;DHT22;6914;53.552;9.908;2022-08-03T15:50:41;32.60;48.40
13684;DHT22;6914;53.552;9.908;2022-08-03T15:53:08;32.70;48.50
13684;DHT22;6914;53.552;9.908;2022-08-03T15:55:35;32.60;47.90
13684;DHT22;6914;53.552;9.908;2022-08-03T15:58:02;32.60;47.80
13684;DHT22;6914;53.552;9.908;2022-08-03T16:00:29;32.90;48.30